Time;durP1;ratioP1;P1;durP2;ratioP2;P2;SDS_P1;SDS_P2;PMS_P1;PMS_P2;Temp;Humidity;BMP_temperature;BMP_pressure;BME280_temperature;BME280_humidity;BME280_pressure;Samples;Min_cycle;Max_cycle;Signal;HPM_P1;HPM_P2
2023/03/13 00:01:02;;;;;;;4.20;1.50;;;12.90;99.90;;;;;;5049767;28;20170;-65
2023/03/13 00:03:28;;;;;;;6.30;1.47;;;12.90;99.90;;;;;;5035302;28;20258;-64
2023/03/13 00:05:57;;;;;;;3.53;0.97;;;13.50;99.90;;;;;;5051340;28;20734;-64
2023/03/13 00:08:24;;;;;;;9.97;1.87;;;13.00;99.90;;;;;;5041276;28;20212;-64
2023/03/13 00:10:51;;;;;;;6.50;1.40;;;;;;;;;;5053007;28;20221;-64
2023/03/13 00:13:16;;;;;;;8.03;1.60;;;12.90;99.90;;;;;;5039751;28;20212;-64
2023/03/13 00:15:42;;;;;;;12.57;1.90;;;13.00;99.90;;;;;;5032990;28;20174;-64
2023/03/13 00:18:08;;;;;;;12.47;2.30;;;12.90;99.90;;;;;;5013297;28;20244;-64
2023/03/13 00:20:33;;;;;;;7.63;1.57;;;12.80;99.90;;;;;;5027304;28;20672;-64
2023/03/13 00:22:59;;;;;;;6.73;1.60;;;12.80;99.90;;;;;;5032950;28;20186;-64
2023/03/13 00:25:24;;;;;;;11.40;2.20;;;12.80;99.90;;;;;;5045149;28;20177;-64
2023/03/13 00:27:50;;;;;;;8.80;2.10;;;12.90;99.90;;;;;;5043441;28;20184;-64
2023/03/13 00:30:16;;;;;;;9.13;1.40;;;13.00;99.90;;;;;;5031728;28;20174;-64
2023/03/13 00:32:43;;;;;;;11.57;2.70;;;12.90;99.90;;;;;;5042361;28;20181;-64
2023/03/13 00:35:08;;;;;;;8.37;2.17;;;12.90;99.90;;;;;;5044188;28;20524;-64
2023/03/13 00:37:34;;;;;;;8.20;1.80;;;12.80;99.90;;;;;;5050982;28;20211;-64
2023/03/13 00:40:00;;;;;;;7.03;1.40;;;12.60;99.90;;;;;;5050642;28;20201;-64
2023/03/13 00:42:26;;;;;;;5.73;1.23;;;;;;;;;;5051034;28;20254;-64
2023/03/13 00:44:51;;;;;;;10.07;1.80;;;12.80;99.90;;;;;;5051259;28;20260;-64
2023/03/13 00:47:17;;;;;;;8.03;1.93;;;12.80;99.90;;;;;;5039668;28;20612;-65
2023/03/13 00:49:42;;;;;;;8.40;1.50;;;12.80;99.90;;;;;;5031800;28;20235;-64
2023/03/13 00:52:08;;;;;;;5.57;1.23;;;12.70;99.90;;;;;;5032191;28;20180;-63
2023/03/13 00:54:34;;;;;;;4.43;0.83;;;;;;;;;;5035707;28;20537;-64
2023/03/13 00:57:00;;;;;;;4.70;1.20;;;12.80;99.90;;;;;;5039445;28;20248;-63
2023/03/13 00:59:25;;;;;;;5.80;1.10;;;12.70;99.90;;;;;;5014569;28;20580;-64
2023/03/13 01:01:51;;;;;;;4.07;1.07;;;12.70;99.90;;;;;;5032156;28;20182;-63
2023/03/13 01:04:16;;;;;;;5.47;1.30;;;12.90;99.90;;;;;;5045298;28;20173;-63
2023/03/13 01:06:42;;;;;;;8.10;1.37;;;;;;;;;;5037037;28;20178;-63
2023/03/13 01:09:12;;;;;;;7.30;1.73;;;12.90;99.90;;;;;;5044450;28;20161;-63
2023/03/13 01:11:40;;;;;;;10.40;1.27;;;12.90;99.90;;;;;;5049825;28;20224;-64
2023/03/13 01:14:12;;;;;;;5.33;1.30;;;13.00;99.90;;;;;;5035166;28;20201;-63
2023/03/13 01:16:38;;;;;;;7.53;1.97;;;13.00;99.90;;;;;;5049317;28;20608;-63
2023/03/13 01:19:07;;;;;;;6.03;1.60;;;12.80;99.90;;;;;;5045295;28;20691;-64
2023/03/13 01:21:34;;;;;;;5.60;1.53;;;12.80;99.90;;;;;;5030866;28;20652;-63
2023/03/13 01:23:59;;;;;;;7.60;1.53;;;12.80;99.90;;;;;;5030985;28;20189;-63
2023/03/13 01:26:26;;;;;;;4.67;1.13;;;13.10;99.90;;;;;;5031224;28;20178;-63
2023/03/13 01:28:51;;;;;;;4.90;1.30;;;13.10;99.90;;;;;;5047873;28;20177;-63
2023/03/13 01:31:20;;;;;;;5.57;1.10;;;13.10;99.90;;;;;;5032832;28;20208;-63
2023/03/13 01:33:48;;;;;;;4.50;1.23;;;13.10;99.90;;;;;;5032887;28;20649;-63
2023/03/13 01:36:15;;;;;;;4.83;1.00;;;13.00;99.90;;;;;;5045436;28;20270;-63
2023/03/13 01:38:40;;;;;;;6.70;1.10;;;13.00;99.90;;;;;;5032373;28;20180;-63
2023/03/13 01:41:08;;;;;;;4.07;0.90;;;13.10;99.90;;;;;;5030710;28;20546;-63
2023/03/13 01:43:35;;;;;;;4.33;1.00;;;13.00;99.90;;;;;;5030260;28;20181;-63
2023/03/13 01:46:12;;;;;;;5.30;0.83;;;13.00;99.90;;;;;;5047943;28;20204;-63
2023/03/13 01:48:43;;;;;;;3.57;0.90;;;13.10;99.90;;;;;;5050955;28;20234;-63
2023/03/13 01:51:30;;;;;;;4.77;0.90;;;13.20;99.90;;;;;;5049657;28;20231;-63
2023/03/13 01:54:14;;;;;;;2.30;0.73;;;13.10;99.90;;;;;;5049238;28;20211;-65
2023/03/13 01:56:47;;;;;;;4.83;1.43;;;13.10;99.90;;;;;;5050497;28;20294;-65
2023/03/13 01:59:17;;;;;;;3.77;0.67;;;15.40;99.90;;;;;;5050580;28;20655;-65
2023/03/13 02:01:45;;;;;;;4.90;0.80;;;13.40;99.90;;;;;;5048301;28;20576;-65
2023/03/13 02:04:11;;;;;;;2.77;0.60;;;13.00;99.90;;;;;;5041911;28;20256;-65
2023/03/13 02:06:41;;;;;;;2.67;0.50;;;13.20;99.90;;;;;;5030820;28;20166;-65
2023/03/13 02:09:12;;;;;;;3.03;0.80;;;13.30;99.90;;;;;;5036135;28;20197;-65
2023/03/13 02:12:13;;;;;;;1.33;0.63;;;13.30;99.90;;;;;;5050790;28;20220;-65
2023/03/13 02:14:41;;;;;;;3.47;0.70;;;13.40;99.90;;;;;;5050337;28;20188;-65
2023/03/13 02:17:07;;;;;;;1.70;0.43;;;;;;;;;;5050123;28;20679;-66
2023/03/13 02:19:43;;;;;;;5.37;1.00;;;13.00;99.90;;;;;;5050709;28;20172;-66
2023/03/13 02:22:23;;;;;;;2.93;0.60;;;13.40;99.90;;;;;;5031213;28;20177;-66
2023/03/13 02:25:17;;;;;;;3.17;0.33;;;13.60;99.90;;;;;;5030612;28;20197;-65
2023/03/13 02:27:45;;;;;;;1.57;0.50;;;13.40;99.90;;;;;;5029897;28;20282;-66
2023/03/13 02:30:12;;;;;;;1.63;0.50;;;13.50;99.90;;;;;;5030474;28;20633;-65
2023/03/13 02:32:38;;;;;;;2.47;0.40;;;13.20;99.90;;;;;;5030370;28;20253;-65
2023/03/13 02:35:08;;;;;;;4.07;0.77;;;13.10;99.90;;;;;;5039606;28;20392;-65
2023/03/13 02:37:35;;;;;;;3.13;0.70;;;13.30;99.90;;;;;;5043065;28;20718;-65
2023/03/13 02:40:08;;;;;;;1.17;0.30;;;13.20;99.90;;;;;;5050215;28;20169;-65
2023/03/13 02:42:35;;;;;;;1.93;0.50;;;13.50;99.90;;;;;;5048818;28;20180;-65
2023/03/13 02:45:01;;;;;;;2.13;0.37;;;13.30;99.90;;;;;;5050374;28;20161;-65
2023/03/13 02:47:26;;;;;;;4.27;0.67;;;13.30;99.90;;;;;;5049244;28;20602;-66
2023/03/13 02:49:52;;;;;;;3.43;0.50;;;;;;;;;;5037774;28;20228;-65
2023/03/13 02:52:26;;;;;;;2.07;0.50;;;13.10;99.90;;;;;;5030695;28;20493;-65
2023/03/13 02:54:57;;;;;;;0.43;0.23;;;13.20;99.90;;;;;;5048035;28;20173;-65
2023/03/13 02:57:23;;;;;;;6.53;0.83;;;13.20;99.90;;;;;;5050183;28;20400;-65
2023/03/13 02:59:49;;;;;;;1.83;0.40;;;13.30;99.90;;;;;;5039974;28;20566;-65
2023/03/13 03:02:14;;;;;;;1.87;0.40;;;13.10;99.90;;;;;;5033446;28;20225;-65
2023/03/13 03:04:40;;;;;;;2.37;0.50;;;12.60;99.90;;;;;;5031277;28;20230;-65
2023/03/13 03:07:06;;;;;;;1.50;0.10;;;13.10;99.90;;;;;;5042151;28;20224;-65
2023/03/13 03:09:31;;;;;;;1.40;0.50;;;13.20;99.90;;;;;;5039675;28;20543;-65
2023/03/13 03:11:57;;;;;;;2.17;0.30;;;13.10;99.90;;;;;;5049439;28;20232;-65
2023/03/13 03:14:22;;;;;;;3.60;0.50;;;13.10;99.90;;;;;;5050052;28;20547;-65
2023/03/13 03:16:48;;;;;;;6.70;0.70;;;13.10;99.90;;;;;;5049998;28;20311;-65
2023/03/13 03:19:14;;;;;;;3.43;0.60;;;13.20;99.90;;;;;;5037636;28;20174;-65
2023/03/13 03:21:39;;;;;;;4.53;0.73;;;13.20;99.90;;;;;;5028938;28;20182;-66
2023/03/13 03:24:05;;;;;;;5.23;0.90;;;13.20;99.90;;;;;;5040592;28;20575;-68
2023/03/13 03:26:31;;;;;;;3.07;0.80;;;13.30;99.90;;;;;;5030168;28;20248;-67
2023/03/13 03:28:57;;;;;;;6.00;1.07;;;13.40;99.90;;;;;;5032979;28;20186;-67
2023/03/13 03:31:22;;;;;;;2.77;0.67;;;13.00;99.90;;;;;;5034234;28;20645;-67
2023/03/13 03:33:48;;;;;;;6.13;0.90;;;13.40;99.90;;;;;;5034281;28;20178;-67
2023/03/13 03:36:18;;;;;;;5.90;1.00;;;13.30;99.90;;;;;;5052695;28;20205;-67
2023/03/13 03:38:44;;;;;;;8.10;1.43;;;13.30;99.90;;;;;;5045406;28;20196;-66
2023/03/13 03:41:11;;;;;;;8.37;1.47;;;13.30;99.90;;;;;;5043455;28;20181;-66
2023/03/13 03:43:37;;;;;;;9.10;1.00;;;13.20;99.90;;;;;;5051048;28;20215;-68
2023/03/13 03:46:03;;;;;;;8.73;1.63;;;13.20;99.90;;;;;;5053212;28;20209;-66
2023/03/13 03:48:28;;;;;;;5.63;1.40;;;13.20;99.90;;;;;;5046467;28;20235;-66
2023/03/13 03:50:54;;;;;;;6.37;1.13;;;13.10;99.90;;;;;;5033722;28;20674;-67
2023/03/13 03:53:20;;;;;;;8.00;1.70;;;13.20;99.90;;;;;;5033667;28;20229;-67
2023/03/13 03:55:46;;;;;;;6.50;1.37;;;13.10;99.90;;;;;;5040707;28;20173;-67
2023/03/13 03:58:11;;;;;;;7.77;1.67;;;12.60;99.90;;;;;;5051083;28;20217;-66
2023/03/13 04:00:37;;;;;;;15.50;2.70;;;12.90;99.90;;;;;;5031035;28;20315;-67
2023/03/13 04:03:03;;;;;;;15.87;2.37;;;12.90;99.90;;;;;;5051705;28;20180;-67
2023/03/13 04:05:29;;;;;;;13.33;1.63;;;13.00;99.90;;;;;;5052121;28;20173;-66
2023/03/13 04:07:54;;;;;;;11.57;2.00;;;12.80;99.90;;;;;;5052992;28;20177;-67
2023/03/13 04:10:21;;;;;;;14.63;1.90;;;;;;;;;;5053062;28;20224;-67
2023/03/13 04:12:46;;;;;;;11.17;2.00;;;13.00;99.90;;;;;;5053053;28;20189;-66
2023/03/13 04:15:12;;;;;;;10.63;2.37;;;13.00;99.90;;;;;;5052590;28;20181;-66
2023/03/13 04:17:37;;;;;;;10.13;1.83;;;15.70;99.90;;;;;;5050817;28;20216;-66
2023/03/13 04:20:04;;;;;;;7.97;1.80;;;12.90;99.90;;;;;;5034206;28;20170;-66
2023/03/13 04:22:30;;;;;;;10.40;2.47;;;12.90;99.90;;;;;;5031758;28;20178;-66
2023/03/13 04:24:55;;;;;;;7.50;1.70;;;15.40;99.90;;;;;;5032613;28;20275;-68
2023/03/13 04:27:21;;;;;;;5.47;1.20;;;13.30;99.90;;;;;;5016016;28;20267;-68
2023/03/13 04:29:47;;;;;;;13.00;1.43;;;13.00;99.90;;;;;;5043414;28;20182;-64
2023/03/13 04:32:12;;;;;;;6.87;1.57;;;13.10;99.90;;;;;;5031975;28;20174;-64
2023/03/13 04:34:38;;;;;;;9.07;1.90;;;12.90;99.90;;;;;;5038972;28;20683;-64
2023/03/13 04:37:04;;;;;;;12.60;2.30;;;13.30;99.90;;;;;;5050957;28;20292;-64
2023/03/13 04:39:29;;;;;;;12.47;1.70;;;13.00;99.90;;;;;;5036266;28;20641;-64
2023/03/13 04:41:55;;;;;;;13.57;2.07;;;13.00;99.90;;;;;;5032051;28;20251;-64
2023/03/13 04:44:21;;;;;;;12.73;2.33;;;13.00;99.90;;;;;;5031181;28;20178;-64
2023/03/13 04:46:48;;;;;;;18.00;2.23;;;13.00;99.90;;;;;;5031716;28;20236;-64
2023/03/13 04:49:15;;;;;;;13.17;1.80;;;12.70;99.90;;;;;;5042858;28;20169;-64
2023/03/13 04:51:41;;;;;;;12.17;2.23;;;13.20;99.90;;;;;;5051287;28;20647;-64
2023/03/13 04:54:07;;;;;;;14.93;2.67;;;13.40;99.90;;;;;;5025141;28;20242;-64
2023/03/13 04:56:33;;;;;;;15.37;2.43;;;13.00;99.90;;;;;;5039570;28;20221;-64
2023/03/13 04:58:58;;;;;;;15.40;3.23;;;13.30;99.90;;;;;;5033654;28;20226;-65
2023/03/13 05:01:24;;;;;;;19.30;3.37;;;12.70;99.90;;;;;;5051679;28;20172;-65
2023/03/13 05:03:49;;;;;;;18.90;3.00;;;13.30;99.90;;;;;;5052198;28;20247;-65
2023/03/13 05:06:15;;;;;;;17.47;3.00;;;13.30;99.90;;;;;;5051717;28;20203;-65
2023/03/13 05:08:41;;;;;;;26.40;3.47;;;13.30;99.90;;;;;;5050959;28;20405;-65
2023/03/13 05:11:07;;;;;;;18.50;3.43;;;13.20;99.90;;;;;;5050571;28;20233;-65
2023/03/13 05:13:32;;;;;;;25.87;4.97;;;13.30;99.90;;;;;;5042289;28;20182;-65
2023/03/13 05:15:58;;;;;;;21.80;3.20;;;13.20;99.90;;;;;;5031137;28;20174;-65
2023/03/13 05:18:24;;;;;;;13.57;2.77;;;13.80;99.90;;;;;;5030485;28;20537;-65
2023/03/13 05:20:50;;;;;;;22.27;3.93;;;13.10;99.90;;;;;;5030276;28;20636;-64
2023/03/13 05:23:15;;;;;;;20.97;3.43;;;13.20;99.90;;;;;;5031261;28;20173;-64
2023/03/13 05:25:41;;;;;;;22.60;3.60;;;13.00;99.90;;;;;;5030669;28;20166;-65
2023/03/13 05:28:06;;;;;;;17.37;3.17;;;13.00;99.90;;;;;;5030964;28;20172;-65
2023/03/13 05:30:32;;;;;;;29.07;4.93;;;12.90;99.90;;;;;;5031055;28;20189;-65
2023/03/13 05:32:58;;;;;;;24.57;3.63;;;13.00;99.90;;;;;;5030384;28;20563;-66
2023/03/13 05:35:23;;;;;;;25.43;3.90;;;12.90;99.90;;;;;;5030602;28;20174;-65
2023/03/13 05:37:49;;;;;;;23.57;3.90;;;13.10;99.90;;;;;;5030613;28;20207;-66
2023/03/13 05:40:15;;;;;;;24.73;5.13;;;13.00;99.90;;;;;;5031207;28;20169;-66
2023/03/13 05:42:41;;;;;;;10.80;2.43;;;13.00;99.90;;;;;;5030731;28;20173;-66
2023/03/13 05:45:08;;;;;;;27.20;3.77;;;12.90;99.90;;;;;;5030572;28;20262;-66
2023/03/13 05:47:34;;;;;;;27.70;4.43;;;12.90;99.90;;;;;;5031286;28;20664;-65
2023/03/13 05:50:00;;;;;;;34.00;4.67;;;12.80;99.90;;;;;;5031758;28;20587;-66
2023/03/13 05:52:26;;;;;;;29.40;5.07;;;12.60;99.90;;;;;;5050315;28;20169;-66
2023/03/13 05:54:52;;;;;;;14.83;2.80;;;12.70;99.90;;;;;;5038572;28;20680;-66
2023/03/13 05:57:18;;;;;;;31.40;4.90;;;13.10;99.90;;;;;;5032903;28;20216;-66
2023/03/13 05:59:43;;;;;;;30.97;4.03;;;12.60;99.90;;;;;;5050199;28;20245;-66
2023/03/13 06:02:09;;;;;;;17.17;4.17;;;12.60;99.90;;;;;;5044371;28;20173;-66
2023/03/13 06:04:35;;;;;;;28.43;3.67;;;12.70;99.90;;;;;;5029265;28;20181;-66
2023/03/13 06:07:01;;;;;;;29.27;4.00;;;12.50;99.90;;;;;;5036953;28;20171;-66
2023/03/13 06:09:26;;;;;;;24.80;4.60;;;12.50;99.90;;;;;;5032971;28;20807;-66
2023/03/13 06:11:52;;;;;;;22.27;3.70;;;12.50;99.90;;;;;;5050020;28;20666;-66
2023/03/13 06:14:17;;;;;;;26.03;3.87;;;12.60;99.90;;;;;;5049084;28;20222;-67
2023/03/13 06:16:44;;;;;;;20.97;3.37;;;12.60;99.90;;;;;;5049800;28;20216;-68
2023/03/13 06:19:10;;;;;;;20.23;4.47;;;12.70;99.90;;;;;;5043849;28;20170;-67
2023/03/13 06:21:36;;;;;;;30.50;4.37;;;12.40;99.90;;;;;;5030945;28;20165;-67
2023/03/13 06:24:02;;;;;;;38.50;5.60;;;12.30;99.90;;;;;;5029477;28;20177;-67
2023/03/13 06:26:27;;;;;;;18.03;3.13;;;12.30;99.90;;;;;;5029950;28;20165;-66
2023/03/13 06:28:53;;;;;;;33.43;4.13;;;12.10;99.90;;;;;;5029812;28;20621;-66
2023/03/13 06:31:19;;;;;;;28.13;4.37;;;11.90;99.90;;;;;;5012036;28;20170;-65
2023/03/13 06:33:44;;;;;;;22.37;3.37;;;11.80;99.90;;;;;;5031242;28;20182;-66
2023/03/13 06:36:10;;;;;;;21.13;3.80;;;12.10;99.90;;;;;;5040651;28;20184;-65
2023/03/13 06:38:36;;;;;;;19.13;3.47;;;12.00;99.90;;;;;;5029938;28;20644;-66
2023/03/13 06:41:01;;;;;;;26.57;3.50;;;12.10;99.90;;;;;;5030095;28;20230;-66
2023/03/13 06:43:27;;;;;;;21.23;3.07;;;12.10;99.90;;;;;;5029069;28;20236;-65
2023/03/13 06:45:53;;;;;;;21.77;3.90;;;12.20;99.90;;;;;;5023332;28;20202;-66
2023/03/13 06:48:20;;;;;;;17.90;3.37;;;12.20;99.90;;;;;;5031243;28;20206;-65
2023/03/13 06:50:46;;;;;;;26.67;4.20;;;12.30;99.90;;;;;;5029682;28;20248;-68
2023/03/13 06:53:19;;;;;;;27.97;4.30;;;12.10;99.90;;;;;;5030234;28;20202;-67
2023/03/13 06:55:45;;;;;;;19.63;3.37;;;12.10;99.90;;;;;;5039465;28;20239;-68
2023/03/13 06:58:11;;;;;;;17.53;3.13;;;;;;;;;;5032083;28;20263;-65
2023/03/13 07:00:39;;;;;;;15.33;3.10;;;12.00;99.90;;;;;;5012565;28;20177;-67
2023/03/13 07:03:05;;;;;;;20.37;3.77;;;12.40;99.90;;;;;;5032650;28;20166;-67
2023/03/13 07:05:31;;;;;;;23.57;4.43;;;11.90;99.90;;;;;;5032936;28;20170;-67
2023/03/13 07:07:56;;;;;;;22.70;4.03;;;11.90;99.90;;;;;;5033497;28;20645;-68
2023/03/13 07:10:22;;;;;;;21.80;4.00;;;12.10;99.90;;;;;;5049487;28;20216;-66
2023/03/13 07:12:48;;;;;;;21.63;3.63;;;12.30;99.90;;;;;;5053498;28;20663;-66
2023/03/13 07:15:13;;;;;;;25.53;4.27;;;12.00;99.90;;;;;;5053602;28;20204;-67
2023/03/13 07:17:39;;;;;;;12.47;2.97;;;;;;;;;;5051652;28;20262;-65
2023/03/13 07:20:08;;;;;;;25.10;3.93;;;11.80;99.90;;;;;;5052475;28;20165;-70
2023/03/13 07:22:34;;;;;;;29.43;3.47;;;11.90;99.90;;;;;;5050734;28;20274;-64
2023/03/13 07:25:00;;;;;;;33.67;5.13;;;12.00;99.90;;;;;;5034923;28;20969;-64
2023/03/13 07:27:25;;;;;;;20.07;3.17;;;11.80;99.90;;;;;;5036171;28;20173;-64
2023/03/13 07:29:51;;;;;;;32.50;5.27;;;12.20;99.90;;;;;;5052330;28;20166;-65
2023/03/13 07:32:17;;;;;;;21.90;4.30;;;12.30;99.90;;;;;;5035091;28;20178;-65
2023/03/13 07:34:43;;;;;;;27.20;3.80;;;12.20;99.90;;;;;;5044708;28;20265;-67
2023/03/13 07:37:13;;;;;;;34.23;5.70;;;12.30;99.90;;;;;;5047713;28;20206;-67
2023/03/13 07:39:39;;;;;;;36.47;5.07;;;;;;;;;;5027290;28;20173;-67
2023/03/13 07:42:05;;;;;;;23.73;4.33;;;12.30;99.90;;;;;;5036473;28;20236;-66
2023/03/13 07:44:32;;;;;;;26.67;4.07;;;13.80;99.90;;;;;;5033336;28;20193;-66
2023/03/13 07:47:01;;;;;;;31.23;5.07;;;12.50;99.90;;;;;;5042869;28;20177;-66
2023/03/13 07:49:26;;;;;;;32.77;5.30;;;12.50;99.90;;;;;;5052633;28;20544;-66
2023/03/13 07:51:52;;;;;;;26.83;5.27;;;12.80;99.90;;;;;;5052408;28;20176;-66
2023/03/13 07:54:17;;;;;;;30.20;4.87;;;12.60;99.90;;;;;;5044347;28;20170;-65
2023/03/13 07:56:43;;;;;;;26.40;4.27;;;12.30;99.90;;;;;;5033187;28;20676;-65
2023/03/13 07:59:09;;;;;;;15.83;3.50;;;12.70;99.90;;;;;;5044966;28;20260;-65
2023/03/13 08:01:35;;;;;;;41.43;5.30;;;12.60;99.90;;;;;;5047587;28;20201;-66
2023/03/13 08:04:01;;;;;;;29.53;5.50;;;12.70;99.90;;;;;;5031906;28;20604;-65
2023/03/13 08:06:29;;;;;;;29.33;5.03;;;13.00;99.90;;;;;;5031926;28;20180;-65
2023/03/13 08:08:58;;;;;;;24.63;4.37;;;13.00;99.90;;;;;;5033159;28;20166;-65
2023/03/13 08:11:26;;;;;;;21.63;3.60;;;13.30;99.90;;;;;;5032771;28;20214;-65
2023/03/13 08:13:53;;;;;;;21.07;3.77;;;12.90;99.90;;;;;;5032546;28;20575;-68
2023/03/13 08:16:24;;;;;;;30.63;4.67;;;13.00;99.90;;;;;;5036391;28;20180;-68
2023/03/13 08:18:52;;;;;;;42.73;6.20;;;12.80;99.90;;;;;;5042005;28;20169;-67
2023/03/13 08:21:22;;;;;;;35.63;5.10;;;12.80;99.90;;;;;;5053131;28;20215;-68
2023/03/13 08:23:48;;;;;;;37.67;5.70;;;;;;;;;;5052099;28;20208;-66
2023/03/13 08:26:16;;;;;;;22.67;3.77;;;11.80;99.90;;;;;;5052602;28;20177;-67
2023/03/13 08:28:43;;;;;;;44.83;6.60;;;12.50;99.90;;;;;;5052361;28;20166;-67
2023/03/13 08:31:10;;;;;;;30.83;4.13;;;12.60;99.90;;;;;;5052741;28;20180;-67
2023/03/13 08:33:36;;;;;;;27.27;5.63;;;12.70;99.90;;;;;;5034748;28;20256;-66
2023/03/13 08:36:12;;;;;;;24.17;3.23;;;12.70;99.90;;;;;;5032953;28;20286;-66
2023/03/13 08:38:40;;;;;;;23.90;4.20;;;12.60;99.90;;;;;;5025776;28;20218;-66
2023/03/13 08:41:06;;;;;;;28.50;5.10;;;12.70;99.90;;;;;;5032241;28;20225;-67
2023/03/13 08:43:32;;;;;;;32.60;6.17;;;12.80;99.90;;;;;;5031885;28;20209;-68
2023/03/13 08:45:58;;;;;;;24.03;3.60;;;13.00;99.90;;;;;;5024237;28;20848;-65
2023/03/13 08:48:23;;;;;;;29.50;4.87;;;13.10;99.90;;;;;;5032515;28;20252;-64
2023/03/13 08:51:09;;;;;;;31.50;5.20;;;13.10;99.90;;;;;;5042331;28;20177;-65
2023/03/13 08:53:36;;;;;;;19.40;3.83;;;13.10;99.90;;;;;;5032682;28;20204;-67
2023/03/13 08:56:03;;;;;;;30.10;3.97;;;13.00;99.90;;;;;;5040148;28;20170;-65
2023/03/13 08:58:29;;;;;;;30.80;4.53;;;13.00;99.90;;;;;;5050722;28;20235;-69
2023/03/13 09:01:01;;;;;;;16.10;3.17;;;12.80;99.90;;;;;;5051912;28;20172;-67
2023/03/13 09:03:26;;;;;;;22.50;4.17;;;11.60;99.90;;;;;;5051369;28;20200;-65
2023/03/13 09:05:52;;;;;;;39.87;4.50;;;12.00;99.90;;;;;;5051499;28;20169;-66
2023/03/13 09:08:18;;;;;;;31.20;4.77;;;11.80;99.90;;;;;;5051878;28;20628;-69
2023/03/13 09:10:43;;;;;;;20.10;4.77;;;11.70;99.90;;;;;;5051727;28;20240;-70
2023/03/13 09:13:09;;;;;;;30.63;5.63;;;11.70;99.90;;;;;;5050111;28;20643;-69
2023/03/13 09:15:34;;;;;;;32.43;4.37;;;11.80;99.90;;;;;;5051370;28;20173;-69
2023/03/13 09:18:00;;;;;;;25.37;4.97;;;11.80;99.90;;;;;;5049143;28;20240;-67
2023/03/13 09:20:26;;;;;;;29.37;5.13;;;11.80;99.90;;;;;;5050019;28;20576;-68
2023/03/13 09:22:51;;;;;;;24.37;4.20;;;11.80;99.90;;;;;;5052013;28;20177;-68
2023/03/13 09:25:17;;;;;;;36.60;6.47;;;11.80;99.90;;;;;;5050117;28;20243;-68
2023/03/13 09:27:42;;;;;;;48.33;7.00;;;11.90;99.90;;;;;;5051773;28;20177;-68
2023/03/13 09:30:09;;;;;;;50.47;6.83;;;11.70;99.90;;;;;;5050145;28;20201;-67
2023/03/13 09:32:34;;;;;;;28.17;4.90;;;11.60;99.90;;;;;;5044132;28;20282;-69
2023/03/13 09:35:00;;;;;;;31.97;5.07;;;11.80;99.90;;;;;;5037349;28;20189;-68
2023/03/13 09:37:25;;;;;;;24.03;4.07;;;11.80;99.90;;;;;;5046264;28;20209;-67
2023/03/13 09:39:51;;;;;;;53.10;7.57;;;12.10;99.90;;;;;;5050285;28;20177;-67
2023/03/13 09:42:18;;;;;;;40.20;6.27;;;12.00;99.90;;;;;;5045842;28;20562;-67
2023/03/13 09:44:56;;;;;;;39.83;5.90;;;12.10;99.90;;;;;;5051027;28;20223;-66
2023/03/13 09:47:49;;;;;;;23.60;3.60;;;12.30;99.90;;;;;;5049566;28;20640;-66
2023/03/13 09:50:24;;;;;;;38.97;5.57;;;12.50;99.90;;;;;;5050698;28;20252;-67
2023/03/13 09:52:54;;;;;;;45.13;6.63;;;12.60;99.90;;;;;;5050551;28;20243;-67
2023/03/13 09:55:25;;;;;;;26.20;5.20;;;12.70;99.90;;;;;;5049413;28;20174;-68
2023/03/13 09:58:08;;;;;;;35.37;5.23;;;12.80;99.90;;;;;;5044014;28;20295;-67
2023/03/13 10:00:47;;;;;;;41.00;6.53;;;13.00;99.90;;;;;;5040913;28;20180;-68
2023/03/13 10:03:33;;;;;;;28.10;4.67;;;13.20;99.90;;;;;;5050231;28;20168;-67
2023/03/13 10:06:03;;;;;;;30.07;4.87;;;15.00;99.90;;;;;;5048927;28;20187;-67
2023/03/13 10:08:33;;;;;;;31.90;5.57;;;13.50;99.90;;;;;;5049934;28;20189;-67
2023/03/13 10:11:26;;;;;;;36.10;6.30;;;13.80;99.90;;;;;;5048587;28;20225;-67
2023/03/13 10:14:25;;;;;;;28.47;4.10;;;13.90;99.90;;;;;;5050262;28;20173;-67
2023/03/13 10:17:17;;;;;;;39.33;5.73;;;15.10;99.90;;;;;;5052547;28;20215;-69
2023/03/13 10:19:43;;;;;;;21.42;4.10;;;14.70;99.90;;;;;;5047388;28;20185;-68
2023/03/13 10:22:18;;;;;;;21.98;3.60;;;14.30;99.90;;;;;;5048625;28;20173;-69
2023/03/13 10:24:53;;;;;;;27.47;4.93;;;14.80;99.90;;;;;;5048580;28;20177;-68
2023/03/13 10:27:19;;;;;;;27.70;3.60;;;14.40;99.90;;;;;;5045837;28;20184;-68
2023/03/13 10:29:45;;;;;;;30.93;5.33;;;14.80;99.90;;;;;;5046992;28;20228;-68
2023/03/13 10:32:14;;;;;;;21.60;3.60;;;15.70;99.90;;;;;;5049042;28;20176;-69
2023/03/13 10:34:53;;;;;;;24.92;4.35;;;15.30;99.90;;;;;;5048874;28;20203;-68
2023/03/13 10:37:24;;;;;;;25.15;4.47;;;15.90;99.90;;;;;;5036532;28;20209;-68
2023/03/13 10:39:51;;;;;;;29.23;5.80;;;14.80;99.90;;;;;;5050144;28;20181;-67
2023/03/13 10:42:26;;;;;;;32.47;5.53;;;14.20;99.90;;;;;;5050751;28;20181;-67
2023/03/13 10:44:59;;;;;;;42.40;6.50;;;14.20;99.90;;;;;;5048732;28;20184;-66
2023/03/13 10:47:25;;;;;;;24.83;5.23;;;13.60;99.90;;;;;;5048882;28;20181;-67
2023/03/13 10:49:56;;;;;;;34.57;5.13;;;13.40;99.90;;;;;;5049685;28;20180;-66
2023/03/13 10:52:46;;;;;;;39.17;7.47;;;13.30;99.90;;;;;;5048519;28;20177;-67
2023/03/13 10:55:23;;;;;;;43.97;7.83;;;13.30;99.90;;;;;;5048510;28;20575;-69
2023/03/13 10:58:01;;;;;;;47.10;7.43;;;13.40;99.90;;;;;;5048679;28;20220;-68
2023/03/13 11:00:26;;;;;;;36.50;5.40;;;13.50;99.90;;;;;;5048907;28;20184;-69
2023/03/13 11:02:53;;;;;;;34.77;4.80;;;13.70;99.90;;;;;;5045265;28;20173;-68
2023/03/13 11:05:29;;;;;;;51.70;7.63;;;13.60;99.90;;;;;;5015865;28;20268;-68
2023/03/13 11:07:55;;;;;;;34.20;5.40;;;13.60;99.90;;;;;;5030938;28;20539;-68
2023/03/13 11:10:35;;;;;;;34.20;4.93;;;13.40;99.90;;;;;;5048341;28;20707;-68
2023/03/13 11:13:02;;;;;;;39.37;5.73;;;13.60;99.90;;;;;;5032311;28;20715;-68
2023/03/13 11:15:50;;;;;;;33.73;6.10;;;13.70;99.90;;;;;;5025211;28;20610;-68
2023/03/13 11:18:31;;;;;;;19.63;3.97;;;13.40;99.90;;;;;;5042190;28;20222;-68
2023/03/13 11:20:59;;;;;;;28.17;3.47;;;13.50;99.90;;;;;;5048507;28;20181;-69
2023/03/13 11:23:29;;;;;;;39.47;6.13;;;13.80;99.90;;;;;;5048997;28;20173;-68
2023/03/13 11:26:05;;;;;;;30.33;4.97;;;13.70;99.90;;;;;;5047489;28;20260;-68
2023/03/13 11:29:07;;;;;;;33.87;5.20;;;13.80;99.90;;;;;;5041169;28;20268;-68
2023/03/13 11:31:38;;;;;;;37.60;6.23;;;14.30;99.90;;;;;;5048844;28;20261;-68
2023/03/13 11:34:31;;;;;;;24.60;4.30;;;13.80;99.90;;;;;;5050487;28;20750;-68
2023/03/13 11:37:04;;;;;;;35.60;6.47;;;13.70;99.90;;;;;;5049227;28;20201;-68
2023/03/13 11:39:44;;;;;;;33.27;4.67;;;13.80;99.90;;;;;;5044932;28;20170;-68
2023/03/13 11:42:13;;;;;;;39.03;6.17;;;13.90;99.90;;;;;;5015405;28;20216;-68
2023/03/13 11:44:53;;;;;;;35.27;6.10;;;14.10;99.90;;;;;;5048480;28;20265;-68
2023/03/13 11:47:56;;;;;;;36.72;5.53;;;14.50;99.90;;;;;;5029919;28;20202;-68
2023/03/13 11:50:36;;;;;;;34.07;5.67;;;16.20;99.90;;;;;;5032781;28;20173;-68
2023/03/13 11:53:23;;;;;;;20.67;3.97;;;16.60;99.90;;;;;;5033606;28;20717;-68
2023/03/13 11:56:25;;;;;;;29.52;5.20;;;16.70;99.90;;;;;;5033594;28;20260;-67
2023/03/13 11:58:59;;;;;;;15.93;3.10;;;17.30;99.90;;;;;;5049529;28;20219;-68
2023/03/13 12:01:31;;;;;;;26.52;4.70;;;18.10;99.90;;;;;;5053381;28;20160;-68
2023/03/13 12:04:05;;;;;;;15.63;3.90;;;18.90;99.90;;;;;;5053297;28;20166;-68
2023/03/13 12:06:53;;;;;;;28.70;5.07;;;19.00;99.90;;;;;;5035392;28;20622;-68
2023/03/13 12:09:38;;;;;;;28.00;5.15;;;19.30;99.90;;;;;;5053450;28;20590;-68
2023/03/13 12:12:11;;;;;;;24.10;4.43;;;19.20;99.90;;;;;;5053242;28;20328;-68
2023/03/13 12:14:45;;;;;;;14.32;3.50;;;19.20;99.90;;;;;;5053341;28;20658;-69
2023/03/13 12:17:14;;;;;;;25.67;5.53;;;19.50;99.90;;;;;;5051802;28;20645;-68
2023/03/13 12:19:45;;;;;;;22.10;3.70;;;20.20;99.90;;;;;;5052986;28;20193;-68
2023/03/13 12:22:19;;;;;;;18.80;3.85;;;20.00;99.90;;;;;;5053037;28;20178;-69
2023/03/13 12:25:01;;;;;;;25.90;5.00;;;19.50;99.90;;;;;;5052958;28;20248;-68
2023/03/13 12:27:34;;;;;;;22.38;4.40;;;19.80;99.90;;;;;;5053125;28;20239;-68
2023/03/13 12:30:03;;;;;;;23.60;4.43;;;19.00;99.90;;;;;;5052956;28;20173;-68
2023/03/13 12:32:36;;;;;;;23.60;5.05;;;18.80;99.90;;;;;;5053117;28;20204;-70
2023/03/13 12:35:19;;;;;;;22.90;4.90;;;18.20;99.90;;;;;;5052816;28;20173;-68
2023/03/13 12:38:06;;;;;;;36.25;6.35;;;16.40;99.90;;;;;;5034885;28;20213;-68
2023/03/13 12:40:50;;;;;;;46.42;9.00;;;15.40;99.90;;;;;;5052699;28;20674;-68
2023/03/13 12:43:17;;;;;;;35.60;6.20;;;15.70;99.90;;;;;;5034217;28;20181;-68
2023/03/13 12:46:09;;;;;;;22.30;4.85;;;15.30;99.90;;;;;;5046497;28;20164;-68
2023/03/13 12:48:59;;;;;;;34.50;6.03;;;14.70;99.90;;;;;;5020520;28;20185;-68
2023/03/13 12:51:46;;;;;;;29.40;5.75;;;14.40;99.90;;;;;;5052159;28;20169;-68
2023/03/13 12:54:47;;;;;;;54.60;10.65;;;13.60;99.90;;;;;;5052192;28;20173;-67